createdAt,value
2022-11-17T00:02:06.050Z,3.89
2022-11-17T00:04:37.171Z,3.88
2022-11-17T00:07:14.375Z,3.87
2022-11-17T00:09:53.863Z,3.85
2022-11-17T00:12:43.402Z,3.85
2022-11-17T00:15:21.120Z,3.82
2022-11-17T00:18:20.778Z,3.80
2022-11-17T00:21:53.282Z,3.79
2022-11-17T00:25:37.032Z,3.73
2022-11-17T00:28:59.894Z,3.75
2022-11-17T00:32:01.278Z,3.76
2022-11-17T00:34:46.237Z,3.75
2022-11-17T00:37:18.530Z,3.75
2022-11-17T00:40:01.020Z,3.65
2022-11-17T00:42:40.329Z,3.65
2022-11-17T00:45:28.947Z,3.69
2022-11-17T00:48:11.996Z,3.72
2022-11-17T00:50:53.824Z,3.72
2022-11-17T00:54:24.699Z,3.70
2022-11-17T00:57:04.831Z,3.68
2022-11-17T00:59:41.657Z,3.66
2022-11-17T01:02:29.283Z,3.66
2022-11-17T01:05:17.348Z,3.64
2022-11-17T01:07:52.927Z,3.63
2022-11-17T01:10:27.399Z,3.65
2022-11-17T01:13:04.504Z,3.65
2022-11-17T01:15:57.351Z,3.64
2022-11-17T01:18:37.918Z,3.61
2022-11-17T01:21:54.403Z,3.60
2022-11-17T01:24:45.246Z,3.52
2022-11-17T01:27:27.527Z,3.55
2022-11-17T01:29:58.900Z,3.59
2022-11-17T01:32:44.364Z,3.59
2022-11-17T01:35:28.017Z,3.60
2022-11-17T01:38:11.249Z,3.60
2022-11-17T01:41:00.574Z,3.61
2022-11-17T01:43:58.071Z,3.60
2022-11-17T01:46:49.015Z,3.60
2022-11-17T01:49:34.818Z,3.61
2022-11-17T01:52:24.004Z,3.62
2022-11-17T01:55:32.326Z,3.62
2022-11-17T01:59:03.295Z,3.63
2022-11-17T02:02:35.006Z,3.60
2022-11-17T02:06:02.571Z,3.60
2022-11-17T02:08:39.393Z,3.61
2022-11-17T02:11:25.480Z,3.67
2022-11-17T02:14:23.575Z,3.68
2022-11-17T02:20:34.735Z,3.69
2022-11-17T02:26:40.339Z,3.73
2022-11-17T02:29:49.561Z,3.73
2022-11-17T02:32:30.117Z,3.73
2022-11-17T02:35:17.154Z,3.76
2022-11-17T02:38:16.357Z,3.78
2022-11-17T02:41:39.601Z,3.78
2022-11-17T02:44:43.061Z,3.79
2022-11-17T02:47:29.800Z,3.78
2022-11-17T02:50:17.440Z,3.76
2022-11-17T02:52:49.628Z,3.79
2022-11-17T02:55:21.281Z,3.81
2022-11-17T02:57:52.724Z,3.79
2022-11-17T03:00:23.773Z,3.78
2022-11-17T03:03:04.390Z,3.79
2022-11-17T03:06:09.752Z,3.79
2022-11-17T03:09:02.741Z,3.78
2022-11-17T03:11:49.306Z,3.76
2022-11-17T03:15:01.516Z,3.75
2022-11-17T03:18:13.619Z,3.74
2022-11-17T03:21:40.894Z,3.73
2022-11-17T03:24:57.612Z,3.73
2022-11-17T03:28:00.133Z,3.71
2022-11-17T03:31:15.558Z,3.71
2022-11-17T03:33:53.758Z,3.70
2022-11-17T03:36:34.930Z,3.72
2022-11-17T03:39:19.332Z,3.75
2022-11-17T03:41:54.047Z,3.74
2022-11-17T03:44:28.331Z,3.76
2022-11-17T03:46:59.313Z,3.76
2022-11-17T03:49:59.404Z,3.76
2022-11-17T03:52:39.198Z,3.73
2022-11-17T03:56:00.445Z,3.72
2022-11-17T03:58:24.580Z,3.71
2022-11-17T04:01:12.553Z,3.72
2022-11-17T04:04:31.218Z,3.74
2022-11-17T04:06:46.000Z,3.72
2022-11-17T04:09:27.969Z,3.71
2022-11-17T04:12:14.678Z,3.69
2022-11-17T04:15:05.151Z,3.68
2022-11-17T04:17:38.551Z,3.68
2022-11-17T04:20:09.585Z,3.68
2022-11-17T04:22:39.073Z,3.69
2022-11-17T04:25:38.149Z,3.69
2022-11-17T04:28:27.603Z,3.70
2022-11-17T04:31:06.973Z,3.70
2022-11-17T04:33:53.582Z,3.72
2022-11-17T04:36:46.166Z,3.73
2022-11-17T04:39:40.997Z,3.72
2022-11-17T04:42:24.270Z,3.70
2022-11-17T04:45:07.881Z,3.70
2022-11-17T04:47:47.104Z,3.68
2022-11-17T04:50:26.759Z,3.65
2022-11-17T04:53:41.552Z,3.64
2022-11-17T04:56:16.094Z,3.63
2022-11-17T04:58:55.573Z,3.57
2022-11-17T05:01:37.177Z,3.57
2022-11-17T05:04:59.906Z,3.58
2022-11-17T05:07:40.756Z,3.57
2022-11-17T05:10:14.874Z,3.59
2022-11-17T05:13:02.644Z,3.61
2022-11-17T05:15:52.528Z,3.62
2022-11-17T05:18:23.721Z,3.63
2022-11-17T05:21:04.225Z,3.62
2022-11-17T05:23:57.553Z,3.56
2022-11-17T05:26:33.156Z,3.56
2022-11-17T05:29:26.371Z,3.60
2022-11-17T05:34:59.356Z,3.60
2022-11-17T05:37:38.890Z,3.63
2022-11-17T05:40:14.002Z,3.65
2022-11-17T05:42:43.028Z,3.67
2022-11-17T05:45:18.440Z,3.67
2022-11-17T05:48:28.023Z,3.66
2022-11-17T05:50:56.623Z,3.66
2022-11-17T05:53:25.620Z,3.68
2022-11-17T05:56:48.735Z,3.67
2022-11-17T05:59:47.506Z,3.62
2022-11-17T06:03:07.850Z,3.56
2022-11-17T06:05:40.655Z,3.56
2022-11-17T06:08:39.915Z,3.52
2022-11-17T06:11:14.371Z,3.51
2022-11-17T06:13:42.764Z,3.46
2022-11-17T06:16:16.125Z,3.44
2022-11-17T06:18:51.490Z,3.41
2022-11-17T06:21:49.297Z,3.35
2022-11-17T06:24:27.825Z,3.30
2022-11-17T06:27:13.548Z,3.29
2022-11-17T06:29:44.856Z,3.30
2022-11-17T06:32:44.673Z,3.29
2022-11-17T06:35:34.390Z,3.29
2022-11-17T06:39:44.239Z,3.27
2022-11-17T06:41:40.890Z,3.24
2022-11-17T06:44:29.088Z,3.25
2022-11-17T06:47:30.674Z,3.23
2022-11-17T06:50:05.081Z,3.23
2022-11-17T06:52:34.678Z,3.23
2022-11-17T06:55:06.022Z,3.20
2022-11-17T06:57:33.781Z,3.17
2022-11-17T07:00:01.812Z,3.13
2022-11-17T07:02:33.763Z,3.12
2022-11-17T07:05:18.590Z,3.10
2022-11-17T07:07:52.756Z,3.06
2022-11-17T07:10:30.871Z,3.05
2022-11-17T07:13:00.807Z,2.97
2022-11-17T07:15:50.740Z,2.97
2022-11-17T07:18:28.527Z,2.98
2022-11-17T07:21:04.941Z,2.99
2022-11-17T07:23:43.898Z,2.99
2022-11-17T07:27:19.461Z,2.96
2022-11-17T07:30:19.665Z,2.93
2022-11-17T07:33:06.180Z,2.94
2022-11-17T07:35:44.906Z,2.95
2022-11-17T07:38:20.946Z,2.97
2022-11-17T07:42:48.155Z,3.02
2022-11-17T07:44:30.906Z,3.02
2022-11-17T07:47:24.514Z,3.04
2022-11-17T07:50:17.844Z,3.06
2022-11-17T07:52:55.870Z,3.10
2022-11-17T07:55:25.505Z,3.08
2022-11-17T07:58:01.940Z,3.08
2022-11-17T08:00:33.631Z,3.06
2022-11-17T08:03:03.930Z,3.07
2022-11-17T08:05:51.276Z,3.05
2022-11-17T08:08:19.605Z,3.05
2022-11-17T08:10:53.408Z,3.08
2022-11-17T08:13:21.841Z,3.14
2022-11-17T08:15:56.752Z,3.17
2022-11-17T08:18:25.826Z,3.16
2022-11-17T08:21:07.813Z,3.16
2022-11-17T08:23:37.097Z,3.14
2022-11-17T08:26:07.643Z,3.15
2022-11-17T08:28:36.828Z,3.15
2022-11-17T08:31:11.323Z,3.09
2022-11-17T08:33:48.379Z,3.06
2022-11-17T08:36:41.328Z,3.06
2022-11-17T08:39:15.918Z,3.05
2022-11-17T08:42:00.158Z,3.03
2022-11-17T08:44:51.229Z,2.99
2022-11-17T08:47:19.504Z,2.94
2022-11-17T08:49:47.424Z,2.90
2022-11-17T08:52:15.429Z,2.95
2022-11-17T08:54:49.422Z,2.98
2022-11-17T08:57:22.566Z,2.98
2022-11-17T08:59:50.531Z,3.00
2022-11-17T09:02:19.720Z,3.06
2022-11-17T09:04:50.021Z,3.13
2022-11-17T09:07:18.562Z,3.19
2022-11-17T09:09:53.830Z,3.22
2022-11-17T09:12:28.008Z,3.23
2022-11-17T09:14:56.453Z,3.23
2022-11-17T09:17:27.987Z,3.22
2022-11-17T09:19:59.038Z,3.22
2022-11-17T09:22:31.594Z,3.23
2022-11-17T09:24:59.674Z,3.27
2022-11-17T09:27:32.993Z,3.30
2022-11-17T09:30:02.966Z,3.34
2022-11-17T09:32:33.619Z,3.32
2022-11-17T09:35:05.687Z,3.29
2022-11-17T09:37:33.641Z,3.30
2022-11-17T09:40:01.538Z,3.30
2022-11-17T09:42:30.319Z,3.31
2022-11-17T09:45:14.862Z,3.35
2022-11-17T09:48:33.406Z,3.36
2022-11-17T09:50:58.589Z,3.29
2022-11-17T09:53:38.982Z,3.24
2022-11-17T09:56:10.961Z,3.23
2022-11-17T09:59:04.057Z,3.25
2022-11-17T10:01:31.880Z,3.26
2022-11-17T10:04:00.841Z,3.27
2022-11-17T10:06:31.327Z,3.30
2022-11-17T10:09:35.717Z,3.35
2022-11-17T10:12:32.175Z,3.39
2022-11-17T10:15:22.156Z,3.38
2022-11-17T10:17:51.033Z,3.33
2022-11-17T10:20:19.788Z,3.32
2022-11-17T10:22:49.625Z,3.32
2022-11-17T10:25:37.235Z,3.33
2022-11-17T10:28:30.262Z,3.39
2022-11-17T10:31:22.280Z,3.47
2022-11-17T10:33:53.586Z,3.52
2022-11-17T10:36:29.323Z,3.52
2022-11-17T10:38:59.859Z,3.50
2022-11-17T10:41:44.708Z,3.47
2022-11-17T10:44:41.618Z,3.45
2022-11-17T10:47:39.292Z,3.41
2022-11-17T10:50:26.972Z,3.36
2022-11-17T10:53:44.949Z,3.33
2022-11-17T10:56:21.061Z,3.28
2022-11-17T10:59:09.389Z,3.28
2022-11-17T11:01:41.904Z,3.29
2022-11-17T11:04:42.389Z,3.29
2022-11-17T11:07:23.779Z,3.26
2022-11-17T11:10:07.123Z,3.26
2022-11-17T11:13:06.043Z,3.26
2022-11-17T11:15:53.867Z,3.22
2022-11-17T11:18:21.713Z,3.23
2022-11-17T11:20:52.061Z,3.23
2022-11-17T11:23:49.791Z,3.20
2022-11-17T11:27:01.825Z,3.17
2022-11-17T11:29:57.277Z,3.17
2022-11-17T11:33:04.568Z,3.12
2022-11-17T11:36:35.669Z,3.10
2022-11-17T11:39:32.054Z,3.07
2022-11-17T11:42:36.826Z,3.06
2022-11-17T11:45:48.476Z,3.03
2022-11-17T11:48:36.258Z,3.02
2022-11-17T11:51:30.603Z,3.01
2022-11-17T11:54:14.275Z,2.98
2022-11-17T11:56:45.529Z,2.97
2022-11-17T11:59:34.232Z,2.99
2022-11-17T12:02:43.754Z,3.00
2022-11-17T12:05:45.176Z,2.96
2022-11-17T12:08:45.273Z,2.90
2022-11-17T12:11:34.308Z,2.90
2022-11-17T12:14:06.643Z,2.88
2022-11-17T12:16:36.223Z,2.89
2022-11-17T12:20:00.287Z,2.89
2022-11-17T12:22:33.346Z,2.95
2022-11-17T12:25:28.566Z,3.02
2022-11-17T12:27:56.785Z,3.05
2022-11-17T12:30:30.575Z,3.06
2022-11-17T12:33:00.762Z,3.06
2022-11-17T12:35:31.747Z,3.00
2022-11-17T12:38:15.783Z,2.92
2022-11-17T12:40:52.598Z,2.90
2022-11-17T12:43:23.783Z,2.87
2022-11-17T12:45:57.686Z,2.88
2022-11-17T12:48:35.098Z,2.89
2022-11-17T12:51:53.768Z,2.88
2022-11-17T12:54:52.556Z,2.87
2022-11-17T12:57:27.913Z,2.85
2022-11-17T13:00:14.262Z,2.81
2022-11-17T13:02:57.617Z,2.78
2022-11-17T13:05:29.854Z,2.72
2022-11-17T13:08:15.863Z,2.68
2022-11-17T13:10:44.608Z,2.66
2022-11-17T13:13:24.275Z,2.68
2022-11-17T13:16:00.761Z,2.72
2022-11-17T13:18:41.389Z,2.73
2022-11-17T13:21:24.228Z,2.73
2022-11-17T13:23:53.200Z,2.75
2022-11-17T13:26:25.410Z,2.76
2022-11-17T13:29:12.831Z,2.74
2022-11-17T13:31:40.836Z,2.69
2022-11-17T13:34:23.083Z,2.69
2022-11-17T13:36:59.950Z,2.65
2022-11-17T13:39:28.306Z,2.60
2022-11-17T13:41:57.777Z,2.59
2022-11-17T13:44:28.393Z,2.59
2022-11-17T13:46:56.447Z,2.56
2022-11-17T13:49:39.086Z,2.49
2022-11-17T13:52:41.979Z,2.43
2022-11-17T13:55:19.963Z,2.34
2022-11-17T13:58:33.624Z,2.32
2022-11-17T14:01:02.168Z,2.30
2022-11-17T14:03:40.389Z,2.30
2022-11-17T14:06:11.514Z,2.34
2022-11-17T14:08:42.790Z,2.36
2022-11-17T14:11:10.567Z,2.36
2022-11-17T14:13:50.403Z,2.34
2022-11-17T14:16:23.041Z,2.28
2022-11-17T14:19:03.930Z,2.19
2022-11-17T14:21:32.877Z,2.18
2022-11-17T14:24:11.198Z,2.16
2022-11-17T14:26:44.237Z,2.15
2022-11-17T14:29:13.240Z,2.16
2022-11-17T14:31:41.164Z,2.15
2022-11-17T14:34:09.129Z,2.17
2022-11-17T14:36:38.965Z,2.20
2022-11-17T14:39:24.928Z,2.21
2022-11-17T14:41:52.645Z,2.18
2022-11-17T14:44:23.151Z,2.17
2022-11-17T14:46:50.883Z,2.13
2022-11-17T14:49:19.743Z,2.11
2022-11-17T14:51:51.148Z,2.10
2022-11-17T14:54:24.852Z,2.08
2022-11-17T14:56:58.020Z,2.07
2022-11-17T14:59:25.993Z,2.06
2022-11-17T15:01:54.158Z,2.04
2022-11-17T15:04:48.824Z,2.04
2022-11-17T15:07:09.629Z,2.05
2022-11-17T15:09:37.354Z,2.03
2022-11-17T15:12:05.385Z,1.99
2022-11-17T15:14:36.535Z,1.97
2022-11-17T15:17:06.005Z,1.93
2022-11-17T15:19:37.288Z,1.91
2022-11-17T15:22:05.506Z,1.94
2022-11-17T15:24:37.652Z,1.95
2022-11-17T15:27:05.806Z,1.93
2022-11-17T15:29:34.138Z,1.91
2022-11-17T15:32:02.425Z,1.89
2022-11-17T15:34:30.369Z,1.89
2022-11-17T15:36:58.794Z,1.87
2022-11-17T15:39:26.592Z,1.85
2022-11-17T15:41:54.532Z,1.80
2022-11-17T15:44:22.269Z,1.75
2022-11-17T15:46:50.174Z,1.73
2022-11-17T15:49:18.321Z,1.69
2022-11-17T15:51:47.557Z,1.69
2022-11-17T15:54:20.249Z,1.73
2022-11-17T15:56:50.262Z,1.73
2022-11-17T15:59:18.505Z,1.70
2022-11-17T16:01:47.104Z,1.66
2022-11-17T16:04:15.703Z,1.64
2022-11-17T16:06:46.282Z,1.61
2022-11-17T16:09:18.255Z,1.57
2022-11-17T16:11:49.186Z,1.54
2022-11-17T16:14:20.087Z,1.45
2022-11-17T16:17:14.806Z,1.41
2022-11-17T16:19:46.876Z,1.44
2022-11-17T16:22:24.745Z,1.47
2022-11-17T16:24:52.398Z,1.50
2022-11-17T16:27:20.249Z,1.50
2022-11-17T16:29:51.193Z,1.51
2022-11-17T16:32:18.849Z,1.52
2022-11-17T16:34:48.566Z,1.53
2022-11-17T16:37:18.568Z,1.51
2022-11-17T16:39:48.926Z,1.46
2022-11-17T16:46:32.231Z,1.26
2022-11-17T16:49:07.203Z,1.25
2022-11-17T16:52:09.196Z,1.25
2022-11-17T16:54:40.392Z,1.22
2022-11-17T16:57:48.568Z,1.24
2022-11-17T17:00:34.665Z,1.25
2022-11-17T17:03:04.387Z,1.27
2022-11-17T17:05:38.790Z,1.30
2022-11-17T17:08:13.020Z,1.30
2022-11-17T17:10:41.496Z,1.29
2022-11-17T17:13:14.828Z,1.28
2022-11-17T17:15:42.640Z,1.27
2022-11-17T17:18:12.660Z,1.28
2022-11-17T17:20:49.943Z,1.32
2022-11-17T17:23:31.582Z,1.35
2022-11-17T17:26:16.930Z,1.29
2022-11-17T17:28:58.397Z,1.30
2022-11-17T17:31:46.066Z,1.33
2022-11-17T17:34:16.574Z,1.36
2022-11-17T17:36:57.755Z,1.35
2022-11-17T17:39:39.053Z,1.32
2022-11-17T17:42:14.767Z,1.30
2022-11-17T17:44:42.544Z,1.29
2022-11-17T17:47:22.166Z,1.29
2022-11-17T17:49:50.799Z,1.27
2022-11-17T17:52:20.783Z,1.29
2022-11-17T17:54:59.096Z,1.30
2022-11-17T17:57:34.040Z,1.29
2022-11-17T18:00:16.133Z,1.30
2022-11-17T18:02:53.204Z,1.30
2022-11-17T18:05:37.900Z,1.28
2022-11-17T18:08:15.602Z,1.24
2022-11-17T18:10:45.805Z,1.17
2022-11-17T18:13:16.723Z,1.09
2022-11-17T18:15:56.423Z,1.06
2022-11-17T18:18:42.244Z,1.06
2022-11-17T18:21:29.460Z,1.03
2022-11-17T18:24:16.954Z,1.02
2022-11-17T18:26:52.171Z,1.01
2022-11-17T18:29:27.810Z,1.06
2022-11-17T18:31:57.956Z,1.08
2022-11-17T18:34:30.156Z,1.07
2022-11-17T18:37:11.496Z,1.02
2022-11-17T18:39:48.426Z,0.99
2022-11-17T18:42:24.383Z,0.97
2022-11-17T18:44:52.902Z,0.93
2022-11-17T18:47:33.691Z,0.95
2022-11-17T18:50:11.710Z,0.95
2022-11-17T18:52:48.037Z,0.95
2022-11-17T18:55:27.293Z,0.92
2022-11-17T18:57:59.045Z,0.97
2022-11-17T19:00:30.087Z,1.00
2022-11-17T19:03:08.618Z,1.05
2022-11-17T19:05:42.078Z,1.09
2022-11-17T19:08:20.995Z,1.10
2022-11-17T19:10:55.407Z,1.08
2022-11-17T19:13:24.499Z,1.05
2022-11-17T19:15:52.853Z,1.05
2022-11-17T19:18:21.146Z,1.06
2022-11-17T19:20:49.763Z,1.02
2022-11-17T19:23:18.622Z,0.99
2022-11-17T19:25:57.963Z,0.99
2022-11-17T19:28:28.926Z,0.98
2022-11-17T19:31:06.631Z,0.98
2022-11-17T19:33:39.725Z,0.95
2022-11-17T19:36:20.124Z,0.94
2022-11-17T19:38:58.320Z,0.92
2022-11-17T19:41:39.323Z,0.90
2022-11-17T19:44:24.172Z,0.89
2022-11-17T19:46:53.082Z,0.92
2022-11-17T19:49:21.026Z,0.97
2022-11-17T19:51:48.891Z,1.01
2022-11-17T19:54:17.191Z,1.05
2022-11-17T19:56:45.286Z,1.09
2022-11-17T19:59:16.356Z,1.12
2022-11-17T20:01:45.673Z,1.15
2022-11-17T20:04:14.300Z,1.15
2022-11-17T20:06:43.271Z,1.10
2022-11-17T20:09:13.597Z,1.07
2022-11-17T20:11:42.318Z,1.04
2022-11-17T20:14:13.385Z,1.04
2022-11-17T20:16:42.214Z,1.06
2022-11-17T20:19:11.322Z,1.10
2022-11-17T20:21:39.551Z,1.12
2022-11-17T20:24:08.159Z,1.14
2022-11-17T20:26:40.017Z,1.16
2022-11-17T20:29:25.126Z,1.18
2022-11-17T20:32:00.285Z,1.16
2022-11-17T20:34:31.573Z,1.11
2022-11-17T20:37:03.051Z,1.06
2022-11-17T20:39:38.293Z,1.03
2022-11-17T20:42:06.618Z,0.99
2022-11-17T20:44:37.270Z,0.97
2022-11-17T20:47:05.559Z,0.98
2022-11-17T20:49:33.716Z,1.03
2022-11-17T20:52:13.050Z,1.03
2022-11-17T20:54:41.857Z,1.03
2022-11-17T20:57:10.409Z,1.03
2022-11-17T20:59:45.912Z,1.01
2022-11-17T21:02:18.314Z,0.99
2022-11-17T21:04:48.328Z,0.97
2022-11-17T21:07:26.201Z,0.93
2022-11-17T21:10:08.872Z,0.92
2022-11-17T21:13:11.291Z,0.92
2022-11-17T21:15:46.979Z,0.91
2022-11-17T21:18:32.651Z,0.93
2022-11-17T21:21:16.290Z,0.96
2022-11-17T21:24:07.458Z,0.98
2022-11-17T21:27:47.973Z,0.96
2022-11-17T21:30:22.778Z,0.87
2022-11-17T21:32:58.417Z,0.84
2022-11-17T21:36:05.871Z,0.80
2022-11-17T21:38:41.543Z,0.76
2022-11-17T21:41:42.588Z,0.71
2022-11-17T21:44:39.452Z,0.70
2022-11-17T21:48:11.339Z,0.69
2022-11-17T21:51:00.804Z,0.71
2022-11-17T21:53:34.884Z,0.71
2022-11-17T21:56:16.023Z,0.70
2022-11-17T21:59:01.201Z,0.71
2022-11-17T22:01:41.952Z,0.71
2022-11-17T22:04:12.422Z,0.64
2022-11-17T22:07:10.142Z,0.65
2022-11-17T22:10:23.368Z,0.66
2022-11-17T22:13:16.399Z,0.65
2022-11-17T22:16:24.300Z,0.64
2022-11-17T22:19:24.804Z,0.64
2022-11-17T22:22:05.697Z,0.64
2022-11-17T22:24:51.249Z,0.68
2022-11-17T22:27:33.645Z,0.70
2022-11-17T22:30:16.987Z,0.72
2022-11-17T22:32:56.162Z,0.71
2022-11-17T22:35:42.907Z,0.68
2022-11-17T22:38:31.681Z,0.66
2022-11-17T22:41:14.079Z,0.65
2022-11-17T22:44:04.311Z,0.64
2022-11-17T22:46:45.253Z,0.65
2022-11-17T22:49:21.982Z,0.65
2022-11-17T22:52:17.421Z,0.64
2022-11-17T22:55:03.618Z,0.56
2022-11-17T22:57:50.060Z,0.50
2022-11-17T23:00:39.780Z,0.44
2022-11-17T23:06:23.725Z,0.42
2022-11-17T23:08:59.623Z,0.39
2022-11-17T23:11:41.249Z,0.41
2022-11-17T23:14:23.848Z,0.44
2022-11-17T23:16:56.135Z,0.47
2022-11-17T23:19:30.749Z,0.46
2022-11-17T23:22:17.162Z,0.42
2022-11-17T23:24:54.016Z,0.43
2022-11-17T23:27:23.488Z,0.45
2022-11-17T23:29:54.043Z,0.43
2022-11-17T23:32:30.539Z,0.46
2022-11-17T23:35:01.844Z,0.45
2022-11-17T23:37:33.867Z,0.46
2022-11-17T23:40:14.908Z,0.43
2022-11-17T23:42:43.502Z,0.41
2022-11-17T23:45:13.917Z,0.42
2022-11-17T23:47:52.185Z,0.42
2022-11-17T23:50:20.673Z,0.41
2022-11-17T23:52:56.222Z,0.42
2022-11-17T23:55:31.393Z,0.40
2022-11-17T23:58:03.875Z,0.37
